sensor_id;sensor_type;location;lat;lon;timestamp;temperature;humidity
21666;DHT22;10994;45.486;9.190;2023-04-24T00:00:14;16.20;99.90
21666;DHT22;10994;45.486;9.190;2023-04-24T00:02:41;16.20;99.90
21666;DHT22;10994;45.486;9.190;2023-04-24T00:05:12;16.30;99.90
21666;DHT22;10994;45.486;9.190;2023-04-24T00:07:39;16.30;99.90
21666;DHT22;10994;45.486;9.190;2023-04-24T00:10:06;16.30;99.90
21666;DHT22;10994;45.486;9.190;2023-04-24T00:12:31;16.30;99.90
21666;DHT22;10994;45.486;9.190;2023-04-24T00:14:57;16.40;99.90
21666;DHT22;10994;45.486;9.190;2023-04-24T00:17:23;16.40;99.90
21666;DHT22;10994;45.486;9.190;2023-04-24T00:19:49;16.40;99.90
21666;DHT22;10994;45.486;9.190;2023-04-24T00:22:17;16.20;99.90
21666;DHT22;10994;45.486;9.190;2023-04-24T00:24:42;16.20;99.90
21666;DHT22;10994;45.486;9.190;2023-04-24T00:27:08;16.10;99.90
21666;DHT22;10994;45.486;9.190;2023-04-24T00:29:34;16.20;99.90
21666;DHT22;10994;45.486;9.190;2023-04-24T00:31:59;16.10;99.90
21666;DHT22;10994;45.486;9.190;2023-04-24T00:34:25;16.10;99.90
21666;DHT22;10994;45.486;9.190;2023-04-24T00:36:51;16.20;99.90
21666;DHT22;10994;45.486;9.190;2023-04-24T00:39:21;16.10;99.90
21666;DHT22;10994;45.486;9.190;2023-04-24T00:41:48;16.20;99.90
21666;DHT22;10994;45.486;9.190;2023-04-24T00:44:14;16.30;99.90
21666;DHT22;10994;45.486;9.190;2023-04-24T00:46:40;16.30;99.90
21666;DHT22;10994;45.486;9.190;2023-04-24T00:49:06;16.30;99.90
21666;DHT22;10994;45.486;9.190;2023-04-24T00:51:32;16.10;99.90
21666;DHT22;10994;45.486;9.190;2023-04-24T00:53:59;16.10;99.90
21666;DHT22;10994;45.486;9.190;2023-04-24T00:56:25;15.90;99.90
21666;DHT22;10994;45.486;9.190;2023-04-24T00:58:51;15.80;99.90
21666;DHT22;10994;45.486;9.190;2023-04-24T01:01:19;15.80;99.90
21666;DHT22;10994;45.486;9.190;2023-04-24T01:03:46;15.70;99.90
21666;DHT22;10994;45.486;9.190;2023-04-24T01:06:13;15.60;99.90
21666;DHT22;10994;45.486;9.190;2023-04-24T01:08:39;15.60;99.90
21666;DHT22;10994;45.486;9.190;2023-04-24T01:11:06;15.70;99.90
21666;DHT22;10994;45.486;9.190;2023-04-24T01:13:33;15.80;99.90
21666;DHT22;10994;45.486;9.190;2023-04-24T01:15:59;15.80;99.90
21666;DHT22;10994;45.486;9.190;2023-04-24T01:18:27;15.90;99.90
21666;DHT22;10994;45.486;9.190;2023-04-24T01:20:54;15.80;99.90
21666;DHT22;10994;45.486;9.190;2023-04-24T01:23:23;15.70;99.90
21666;DHT22;10994;45.486;9.190;2023-04-24T01:25:50;15.60;99.90
21666;DHT22;10994;45.486;9.190;2023-04-24T01:28:18;15.70;99.90
21666;DHT22;10994;45.486;9.190;2023-04-24T01:30:43;15.90;99.90
21666;DHT22;10994;45.486;9.190;2023-04-24T01:33:09;16.00;99.90
21666;DHT22;10994;45.486;9.190;2023-04-24T01:35:36;16.00;99.90
21666;DHT22;10994;45.486;9.190;2023-04-24T01:38:03;15.60;99.90
21666;DHT22;10994;45.486;9.190;2023-04-24T01:40:30;15.60;99.90
21666;DHT22;10994;45.486;9.190;2023-04-24T01:42:58;15.60;99.90
21666;DHT22;10994;45.486;9.190;2023-04-24T01:45:23;15.60;99.90
21666;DHT22;10994;45.486;9.190;2023-04-24T01:47:49;15.70;99.90
21666;DHT22;10994;45.486;9.190;2023-04-24T01:50:16;15.60;99.90
21666;DHT22;10994;45.486;9.190;2023-04-24T01:52:42;15.80;99.90
21666;DHT22;10994;45.486;9.190;2023-04-24T01:55:09;15.90;99.90
21666;DHT22;10994;45.486;9.190;2023-04-24T01:57:35;16.00;99.90
21666;DHT22;10994;45.486;9.190;2023-04-24T02:00:02;16.20;99.90
21666;DHT22;10994;45.486;9.190;2023-04-24T02:02:40;16.10;99.90
21666;DHT22;10994;45.486;9.190;2023-04-24T02:05:07;16.00;99.90
21666;DHT22;10994;45.486;9.190;2023-04-24T02:07:35;15.90;99.90
21666;DHT22;10994;45.486;9.190;2023-04-24T02:10:01;16.00;99.90
21666;DHT22;10994;45.486;9.190;2023-04-24T02:12:27;15.90;99.90
21666;DHT22;10994;45.486;9.190;2023-04-24T02:14:52;15.90;99.90
21666;DHT22;10994;45.486;9.190;2023-04-24T02:17:18;16.00;99.90
21666;DHT22;10994;45.486;9.190;2023-04-24T02:19:44;16.10;99.90
21666;DHT22;10994;45.486;9.190;2023-04-24T02:22:11;16.20;99.90
21666;DHT22;10994;45.486;9.190;2023-04-24T02:24:37;16.10;99.90
21666;DHT22;10994;45.486;9.190;2023-04-24T02:27:03;16.20;99.90
21666;DHT22;10994;45.486;9.190;2023-04-24T02:29:29;16.20;99.90
21666;DHT22;10994;45.486;9.190;2023-04-24T02:31:54;16.10;99.90
21666;DHT22;10994;45.486;9.190;2023-04-24T02:34:20;16.10;99.90
21666;DHT22;10994;45.486;9.190;2023-04-24T02:36:46;15.90;99.90
21666;DHT22;10994;45.486;9.190;2023-04-24T02:39:14;15.70;99.90
21666;DHT22;10994;45.486;9.190;2023-04-24T02:41:42;15.80;99.90
21666;DHT22;10994;45.486;9.190;2023-04-24T02:44:08;15.50;99.90
21666;DHT22;10994;45.486;9.190;2023-04-24T02:46:33;15.50;99.90
21666;DHT22;10994;45.486;9.190;2023-04-24T02:48:59;15.60;99.90
21666;DHT22;10994;45.486;9.190;2023-04-24T02:51:25;15.80;99.90
21666;DHT22;10994;45.486;9.190;2023-04-24T02:53:52;15.90;99.90
21666;DHT22;10994;45.486;9.190;2023-04-24T02:56:18;16.00;99.90
21666;DHT22;10994;45.486;9.190;2023-04-24T02:58:43;16.10;99.90
21666;DHT22;10994;45.486;9.190;2023-04-24T03:01:09;16.20;99.90
21666;DHT22;10994;45.486;9.190;2023-04-24T03:03:36;16.10;99.90
21666;DHT22;10994;45.486;9.190;2023-04-24T03:06:02;16.00;99.90
21666;DHT22;10994;45.486;9.190;2023-04-24T03:08:28;16.10;99.90
21666;DHT22;10994;45.486;9.190;2023-04-24T03:10:53;16.10;99.90
21666;DHT22;10994;45.486;9.190;2023-04-24T03:13:19;16.20;99.90
21666;DHT22;10994;45.486;9.190;2023-04-24T03:15:45;16.10;99.90
21666;DHT22;10994;45.486;9.190;2023-04-24T03:18:12;16.20;99.90
21666;DHT22;10994;45.486;9.190;2023-04-24T03:20:37;16.30;99.90
21666;DHT22;10994;45.486;9.190;2023-04-24T03:23:03;16.20;99.90
21666;DHT22;10994;45.486;9.190;2023-04-24T03:25:29;16.30;99.90
21666;DHT22;10994;45.486;9.190;2023-04-24T03:27:56;16.30;99.90
21666;DHT22;10994;45.486;9.190;2023-04-24T03:30:50;16.30;99.90
21666;DHT22;10994;45.486;9.190;2023-04-24T03:33:17;16.30;99.90
21666;DHT22;10994;45.486;9.190;2023-04-24T03:35:53;16.10;99.90
21666;DHT22;10994;45.486;9.190;2023-04-24T03:38:19;16.00;99.90
21666;DHT22;10994;45.486;9.190;2023-04-24T03:40:56;16.00;99.90
21666;DHT22;10994;45.486;9.190;2023-04-24T03:43:48;16.00;99.90
21666;DHT22;10994;45.486;9.190;2023-04-24T03:46:14;16.10;99.90
21666;DHT22;10994;45.486;9.190;2023-04-24T03:48:45;16.00;99.90
21666;DHT22;10994;45.486;9.190;2023-04-24T03:51:12;16.10;99.90
21666;DHT22;10994;45.486;9.190;2023-04-24T03:53:42;16.10;99.90
21666;DHT22;10994;45.486;9.190;2023-04-24T03:56:09;16.10;99.90
21666;DHT22;10994;45.486;9.190;2023-04-24T03:58:34;16.20;99.90
21666;DHT22;10994;45.486;9.190;2023-04-24T04:01:00;16.10;99.90
21666;DHT22;10994;45.486;9.190;2023-04-24T04:03:49;16.20;99.90
21666;DHT22;10994;45.486;9.190;2023-04-24T04:06:18;16.20;99.90
21666;DHT22;10994;45.486;9.190;2023-04-24T04:08:45;16.20;99.90
21666;DHT22;10994;45.486;9.190;2023-04-24T04:11:11;16.10;99.90
21666;DHT22;10994;45.486;9.190;2023-04-24T04:13:37;16.10;99.90
21666;DHT22;10994;45.486;9.190;2023-04-24T04:16:02;16.00;99.90
21666;DHT22;10994;45.486;9.190;2023-04-24T04:18:28;16.00;99.90
21666;DHT22;10994;45.486;9.190;2023-04-24T04:20:54;16.00;99.90
21666;DHT22;10994;45.486;9.190;2023-04-24T04:23:20;16.00;99.90
21666;DHT22;10994;45.486;9.190;2023-04-24T04:26:01;16.00;99.90
21666;DHT22;10994;45.486;9.190;2023-04-24T04:28:38;16.00;99.90
21666;DHT22;10994;45.486;9.190;2023-04-24T04:31:05;16.10;99.90
21666;DHT22;10994;45.486;9.190;2023-04-24T04:33:30;16.10;99.90
21666;DHT22;10994;45.486;9.190;2023-04-24T04:35:56;16.10;99.90
21666;DHT22;10994;45.486;9.190;2023-04-24T04:38:26;16.10;99.90
21666;DHT22;10994;45.486;9.190;2023-04-24T04:41:12;16.10;99.90
21666;DHT22;10994;45.486;9.190;2023-04-24T04:43:40;16.10;99.90
21666;DHT22;10994;45.486;9.190;2023-04-24T04:46:06;16.00;99.90
21666;DHT22;10994;45.486;9.190;2023-04-24T04:48:42;16.10;99.90
21666;DHT22;10994;45.486;9.190;2023-04-24T04:51:08;16.10;99.90
21666;DHT22;10994;45.486;9.190;2023-04-24T04:53:35;16.10;99.90
21666;DHT22;10994;45.486;9.190;2023-04-24T04:56:01;16.00;99.90
21666;DHT22;10994;45.486;9.190;2023-04-24T04:58:41;15.70;99.90
21666;DHT22;10994;45.486;9.190;2023-04-24T05:01:10;15.70;99.90
21666;DHT22;10994;45.486;9.190;2023-04-24T05:03:40;15.80;99.90
21666;DHT22;10994;45.486;9.190;2023-04-24T05:06:09;15.80;99.90
21666;DHT22;10994;45.486;9.190;2023-04-24T05:08:37;15.70;99.90
21666;DHT22;10994;45.486;9.190;2023-04-24T05:11:05;15.70;99.90
21666;DHT22;10994;45.486;9.190;2023-04-24T05:13:31;15.70;99.90
21666;DHT22;10994;45.486;9.190;2023-04-24T05:15:58;15.80;99.90
21666;DHT22;10994;45.486;9.190;2023-04-24T05:18:24;15.80;99.90
21666;DHT22;10994;45.486;9.190;2023-04-24T05:20:50;15.80;99.90
21666;DHT22;10994;45.486;9.190;2023-04-24T05:23:15;15.90;99.90
21666;DHT22;10994;45.486;9.190;2023-04-24T05:25:44;15.80;99.90
21666;DHT22;10994;45.486;9.190;2023-04-24T05:28:11;15.80;99.90
21666;DHT22;10994;45.486;9.190;2023-04-24T05:30:38;15.80;99.90
21666;DHT22;10994;45.486;9.190;2023-04-24T05:33:03;15.70;99.90
21666;DHT22;10994;45.486;9.190;2023-04-24T05:35:33;15.70;99.90
21666;DHT22;10994;45.486;9.190;2023-04-24T05:38:00;15.80;99.90
21666;DHT22;10994;45.486;9.190;2023-04-24T05:40:25;15.70;99.90
21666;DHT22;10994;45.486;9.190;2023-04-24T05:42:51;15.60;99.90
21666;DHT22;10994;45.486;9.190;2023-04-24T05:45:17;15.70;99.90
21666;DHT22;10994;45.486;9.190;2023-04-24T05:47:43;15.80;99.90
21666;DHT22;10994;45.486;9.190;2023-04-24T05:50:10;15.70;99.90
21666;DHT22;10994;45.486;9.190;2023-04-24T05:52:36;15.60;99.90
21666;DHT22;10994;45.486;9.190;2023-04-24T05:55:10;15.60;99.90
21666;DHT22;10994;45.486;9.190;2023-04-24T05:57:40;15.70;99.90
21666;DHT22;10994;45.486;9.190;2023-04-24T06:00:06;15.80;99.90
21666;DHT22;10994;45.486;9.190;2023-04-24T06:02:49;15.90;99.90
21666;DHT22;10994;45.486;9.190;2023-04-24T06:05:15;16.00;99.90
21666;DHT22;10994;45.486;9.190;2023-04-24T06:07:41;16.00;99.90
21666;DHT22;10994;45.486;9.190;2023-04-24T06:10:08;16.00;99.90
21666;DHT22;10994;45.486;9.190;2023-04-24T06:12:39;16.10;99.90
21666;DHT22;10994;45.486;9.190;2023-04-24T06:15:10;16.20;99.90
21666;DHT22;10994;45.486;9.190;2023-04-24T06:17:49;16.20;99.90
21666;DHT22;10994;45.486;9.190;2023-04-24T06:20:16;16.20;99.90
21666;DHT22;10994;45.486;9.190;2023-04-24T06:22:42;16.30;99.90
21666;DHT22;10994;45.486;9.190;2023-04-24T06:25:09;16.40;99.90
21666;DHT22;10994;45.486;9.190;2023-04-24T06:27:35;16.30;99.90
21666;DHT22;10994;45.486;9.190;2023-04-24T06:30:01;16.20;99.90
21666;DHT22;10994;45.486;9.190;2023-04-24T06:32:27;16.20;99.90
21666;DHT22;10994;45.486;9.190;2023-04-24T06:34:53;16.00;99.90
21666;DHT22;10994;45.486;9.190;2023-04-24T06:37:22;16.10;99.90
21666;DHT22;10994;45.486;9.190;2023-04-24T06:39:47;16.10;99.90
21666;DHT22;10994;45.486;9.190;2023-04-24T06:42:13;16.20;99.90
21666;DHT22;10994;45.486;9.190;2023-04-24T06:44:42;16.30;99.90
21666;DHT22;10994;45.486;9.190;2023-04-24T06:47:12;16.40;99.90
21666;DHT22;10994;45.486;9.190;2023-04-24T06:49:39;16.50;99.90
21666;DHT22;10994;45.486;9.190;2023-04-24T06:52:05;16.70;99.90
21666;DHT22;10994;45.486;9.190;2023-04-24T06:54:31;16.70;99.90
21666;DHT22;10994;45.486;9.190;2023-04-24T06:56:58;16.70;99.90
21666;DHT22;10994;45.486;9.190;2023-04-24T06:59:24;16.80;99.90
21666;DHT22;10994;45.486;9.190;2023-04-24T07:01:50;16.80;99.90
21666;DHT22;10994;45.486;9.190;2023-04-24T07:04:19;16.70;99.90
21666;DHT22;10994;45.486;9.190;2023-04-24T07:06:48;16.80;99.90
21666;DHT22;10994;45.486;9.190;2023-04-24T07:09:18;16.90;99.90
21666;DHT22;10994;45.486;9.190;2023-04-24T07:11:44;16.90;99.90
21666;DHT22;10994;45.486;9.190;2023-04-24T07:14:10;16.90;99.90
21666;DHT22;10994;45.486;9.190;2023-04-24T07:16:36;17.10;99.90
21666;DHT22;10994;45.486;9.190;2023-04-24T07:19:02;17.40;99.90
21666;DHT22;10994;45.486;9.190;2023-04-24T07:21:27;17.40;99.90
21666;DHT22;10994;45.486;9.190;2023-04-24T07:23:53;17.30;99.90
21666;DHT22;10994;45.486;9.190;2023-04-24T07:26:20;17.10;99.90
21666;DHT22;10994;45.486;9.190;2023-04-24T07:28:46;17.10;99.90
21666;DHT22;10994;45.486;9.190;2023-04-24T07:31:14;17.30;99.90
21666;DHT22;10994;45.486;9.190;2023-04-24T07:33:40;17.50;99.90
21666;DHT22;10994;45.486;9.190;2023-04-24T07:36:06;17.60;99.90
21666;DHT22;10994;45.486;9.190;2023-04-24T07:38:31;17.40;99.90
21666;DHT22;10994;45.486;9.190;2023-04-24T07:40:57;17.30;99.90
21666;DHT22;10994;45.486;9.190;2023-04-24T07:43:23;17.30;99.90
21666;DHT22;10994;45.486;9.190;2023-04-24T07:45:52;17.40;99.90
21666;DHT22;10994;45.486;9.190;2023-04-24T07:48:18;17.50;99.90
21666;DHT22;10994;45.486;9.190;2023-04-24T07:50:46;17.50;99.90
21666;DHT22;10994;45.486;9.190;2023-04-24T07:53:12;17.60;99.90
21666;DHT22;10994;45.486;9.190;2023-04-24T07:55:37;17.60;99.90
21666;DHT22;10994;45.486;9.190;2023-04-24T07:58:03;17.70;99.90
21666;DHT22;10994;45.486;9.190;2023-04-24T08:00:29;17.70;99.90
21666;DHT22;10994;45.486;9.190;2023-04-24T08:02:55;17.80;99.90
21666;DHT22;10994;45.486;9.190;2023-04-24T08:05:21;18.10;99.90
21666;DHT22;10994;45.486;9.190;2023-04-24T08:07:46;18.00;99.90
21666;DHT22;10994;45.486;9.190;2023-04-24T08:10:14;18.00;99.90
21666;DHT22;10994;45.486;9.190;2023-04-24T08:12:40;18.20;99.90
21666;DHT22;10994;45.486;9.190;2023-04-24T08:15:06;18.30;99.90
21666;DHT22;10994;45.486;9.190;2023-04-24T08:17:34;18.40;99.90
21666;DHT22;10994;45.486;9.190;2023-04-24T08:20:00;18.40;99.90
21666;DHT22;10994;45.486;9.190;2023-04-24T08:22:30;18.60;99.90
21666;DHT22;10994;45.486;9.190;2023-04-24T08:24:56;18.70;99.90
21666;DHT22;10994;45.486;9.190;2023-04-24T08:27:23;18.50;99.90
21666;DHT22;10994;45.486;9.190;2023-04-24T08:29:49;18.40;99.90
21666;DHT22;10994;45.486;9.190;2023-04-24T08:32:15;18.00;99.90
21666;DHT22;10994;45.486;9.190;2023-04-24T08:34:41;18.00;99.90
21666;DHT22;10994;45.486;9.190;2023-04-24T08:37:06;18.00;99.90
21666;DHT22;10994;45.486;9.190;2023-04-24T08:39:32;17.90;99.90
21666;DHT22;10994;45.486;9.190;2023-04-24T08:41:59;18.00;99.90
21666;DHT22;10994;45.486;9.190;2023-04-24T08:44:32;18.00;99.90
21666;DHT22;10994;45.486;9.190;2023-04-24T08:46:58;18.00;99.90
21666;DHT22;10994;45.486;9.190;2023-04-24T08:49:24;18.10;99.90
21666;DHT22;10994;45.486;9.190;2023-04-24T08:51:50;18.20;99.90
21666;DHT22;10994;45.486;9.190;2023-04-24T08:54:18;18.30;99.90
21666;DHT22;10994;45.486;9.190;2023-04-24T08:56:44;18.30;99.90
21666;DHT22;10994;45.486;9.190;2023-04-24T08:59:12;18.40;99.90
21666;DHT22;10994;45.486;9.190;2023-04-24T09:01:40;18.10;99.90
21666;DHT22;10994;45.486;9.190;2023-04-24T09:04:07;18.10;99.90
21666;DHT22;10994;45.486;9.190;2023-04-24T09:06:34;18.20;99.90
21666;DHT22;10994;45.486;9.190;2023-04-24T09:09:01;18.30;99.90
21666;DHT22;10994;45.486;9.190;2023-04-24T09:11:27;18.30;99.90
21666;DHT22;10994;45.486;9.190;2023-04-24T09:13:56;18.30;99.90
21666;DHT22;10994;45.486;9.190;2023-04-24T09:16:22;18.30;99.90
21666;DHT22;10994;45.486;9.190;2023-04-24T09:18:50;18.40;99.90
21666;DHT22;10994;45.486;9.190;2023-04-24T09:21:16;18.40;99.90
21666;DHT22;10994;45.486;9.190;2023-04-24T09:23:41;18.40;99.90
21666;DHT22;10994;45.486;9.190;2023-04-24T09:26:09;18.40;99.90
21666;DHT22;10994;45.486;9.190;2023-04-24T09:28:36;18.50;99.90
21666;DHT22;10994;45.486;9.190;2023-04-24T09:31:04;18.60;99.90
21666;DHT22;10994;45.486;9.190;2023-04-24T09:33:30;18.60;99.90
21666;DHT22;10994;45.486;9.190;2023-04-24T09:35:56;18.70;99.90
21666;DHT22;10994;45.486;9.190;2023-04-24T09:38:32;18.70;99.90
21666;DHT22;10994;45.486;9.190;2023-04-24T09:41:02;18.60;99.90
21666;DHT22;10994;45.486;9.190;2023-04-24T09:43:29;18.70;99.90
21666;DHT22;10994;45.486;9.190;2023-04-24T09:45:56;18.80;99.90
21666;DHT22;10994;45.486;9.190;2023-04-24T09:48:38;18.60;99.90
21666;DHT22;10994;45.486;9.190;2023-04-24T09:51:05;18.70;99.90
21666;DHT22;10994;45.486;9.190;2023-04-24T09:53:36;18.80;99.90
21666;DHT22;10994;45.486;9.190;2023-04-24T09:56:09;18.90;99.90
21666;DHT22;10994;45.486;9.190;2023-04-24T09:58:36;18.90;99.90
21666;DHT22;10994;45.486;9.190;2023-04-24T10:01:02;19.00;99.90
21666;DHT22;10994;45.486;9.190;2023-04-24T10:03:32;19.00;99.90
21666;DHT22;10994;45.486;9.190;2023-04-24T10:06:03;19.00;99.90
21666;DHT22;10994;45.486;9.190;2023-04-24T10:08:34;19.10;99.90
21666;DHT22;10994;45.486;9.190;2023-04-24T10:11:01;19.10;99.90
21666;DHT22;10994;45.486;9.190;2023-04-24T10:13:28;19.10;99.90
21666;DHT22;10994;45.486;9.190;2023-04-24T10:15:54;19.30;99.90
21666;DHT22;10994;45.486;9.190;2023-04-24T10:18:21;19.20;99.90
21666;DHT22;10994;45.486;9.190;2023-04-24T10:20:48;19.20;99.90
21666;DHT22;10994;45.486;9.190;2023-04-24T10:23:14;19.30;99.90
21666;DHT22;10994;45.486;9.190;2023-04-24T10:25:40;19.30;99.90
21666;DHT22;10994;45.486;9.190;2023-04-24T10:28:06;19.20;99.90
21666;DHT22;10994;45.486;9.190;2023-04-24T10:30:33;19.10;99.90
21666;DHT22;10994;45.486;9.190;2023-04-24T10:33:01;19.10;99.90
21666;DHT22;10994;45.486;9.190;2023-04-24T10:35:30;19.20;99.90
21666;DHT22;10994;45.486;9.190;2023-04-24T10:38:00;19.30;99.90
21666;DHT22;10994;45.486;9.190;2023-04-24T10:40:30;19.50;99.90
21666;DHT22;10994;45.486;9.190;2023-04-24T10:42:56;19.40;99.90
21666;DHT22;10994;45.486;9.190;2023-04-24T10:45:23;19.40;99.90
21666;DHT22;10994;45.486;9.190;2023-04-24T10:48:01;19.30;99.90
21666;DHT22;10994;45.486;9.190;2023-04-24T10:50:28;19.40;99.90
21666;DHT22;10994;45.486;9.190;2023-04-24T10:53:06;19.50;99.90
21666;DHT22;10994;45.486;9.190;2023-04-24T10:55:51;19.50;99.90
21666;DHT22;10994;45.486;9.190;2023-04-24T10:58:22;19.60;99.90
21666;DHT22;10994;45.486;9.190;2023-04-24T11:00:58;19.60;99.90
21666;DHT22;10994;45.486;9.190;2023-04-24T11:36:19;19.70;99.90
21666;DHT22;10994;45.486;9.190;2023-04-24T11:38:45;20.10;99.90
21666;DHT22;10994;45.486;9.190;2023-04-24T11:41:13;20.20;99.90
21666;DHT22;10994;45.486;9.190;2023-04-24T11:43:39;20.30;99.90
21666;DHT22;10994;45.486;9.190;2023-04-24T11:46:05;20.40;99.90
21666;DHT22;10994;45.486;9.190;2023-04-24T11:48:34;20.60;99.90
21666;DHT22;10994;45.486;9.190;2023-04-24T11:51:02;20.70;99.90
21666;DHT22;10994;45.486;9.190;2023-04-24T11:53:27;20.70;99.90
21666;DHT22;10994;45.486;9.190;2023-04-24T11:55:53;20.80;99.90
21666;DHT22;10994;45.486;9.190;2023-04-24T12:03:22;20.90;99.90
21666;DHT22;10994;45.486;9.190;2023-04-24T12:05:48;21.90;99.90
21666;DHT22;10994;45.486;9.190;2023-04-24T12:08:27;22.10;99.90
21666;DHT22;10994;45.486;9.190;2023-04-24T12:10:53;22.20;99.90
21666;DHT22;10994;45.486;9.190;2023-04-24T12:13:19;22.40;99.90
21666;DHT22;10994;45.486;9.190;2023-04-24T12:15:45;22.60;99.90
21666;DHT22;10994;45.486;9.190;2023-04-24T12:18:14;22.80;99.90
21666;DHT22;10994;45.486;9.190;2023-04-24T12:52:59;23.10;99.90
21666;DHT22;10994;45.486;9.190;2023-04-24T12:55:25;24.50;99.90
21666;DHT22;10994;45.486;9.190;2023-04-24T12:57:50;24.50;99.90
21666;DHT22;10994;45.486;9.190;2023-04-24T13:00:17;24.80;99.90
21666;DHT22;10994;45.486;9.190;2023-04-24T13:02:43;24.50;99.90
21666;DHT22;10994;45.486;9.190;2023-04-24T13:05:09;23.80;99.90
21666;DHT22;10994;45.486;9.190;2023-04-24T13:07:34;24.00;99.90
21666;DHT22;10994;45.486;9.190;2023-04-24T13:10:00;24.30;99.90
21666;DHT22;10994;45.486;9.190;2023-04-24T13:12:26;24.50;99.90
21666;DHT22;10994;45.486;9.190;2023-04-24T13:14:52;24.70;99.90
21666;DHT22;10994;45.486;9.190;2023-04-24T13:17:18;24.80;99.90
21666;DHT22;10994;45.486;9.190;2023-04-24T13:19:44;24.70;99.90
21666;DHT22;10994;45.486;9.190;2023-04-24T13:22:11;24.70;98.20
21666;DHT22;10994;45.486;9.190;2023-04-24T13:24:38;24.70;97.00
21666;DHT22;10994;45.486;9.190;2023-04-24T13:27:05;24.70;96.40
21666;DHT22;10994;45.486;9.190;2023-04-24T13:29:30;24.70;95.70
21666;DHT22;10994;45.486;9.190;2023-04-24T13:31:56;24.60;94.20
21666;DHT22;10994;45.486;9.190;2023-04-24T13:34:25;24.80;95.10
21666;DHT22;10994;45.486;9.190;2023-04-24T13:36:53;25.00;94.80
21666;DHT22;10994;45.486;9.190;2023-04-24T13:39:20;25.10;92.20
21666;DHT22;10994;45.486;9.190;2023-04-24T13:41:45;25.10;92.20
21666;DHT22;10994;45.486;9.190;2023-04-24T13:44:17;25.30;94.10
21666;DHT22;10994;45.486;9.190;2023-04-24T13:51:37;25.40;93.20
21666;DHT22;10994;45.486;9.190;2023-04-24T13:54:03;25.30;83.60
21666;DHT22;10994;45.486;9.190;2023-04-24T13:56:28;25.10;73.90
21666;DHT22;10994;45.486;9.190;2023-04-24T13:58:54;25.30;78.30
21666;DHT22;10994;45.486;9.190;2023-04-24T14:01:20;25.30;72.50
21666;DHT22;10994;45.486;9.190;2023-04-24T14:03:49;25.20;68.40
21666;DHT22;10994;45.486;9.190;2023-04-24T14:06:15;24.80;71.60
21666;DHT22;10994;45.486;9.190;2023-04-24T14:08:41;25.10;78.00
21666;DHT22;10994;45.486;9.190;2023-04-24T14:11:06;25.30;76.30
21666;DHT22;10994;45.486;9.190;2023-04-24T14:13:32;25.60;79.30
21666;DHT22;10994;45.486;9.190;2023-04-24T14:15:58;25.70;79.30
21666;DHT22;10994;45.486;9.190;2023-04-24T14:18:24;25.00;65.90
21666;DHT22;10994;45.486;9.190;2023-04-24T14:20:49;24.60;64.50
21666;DHT22;10994;45.486;9.190;2023-04-24T14:23:15;24.10;64.00
21666;DHT22;10994;45.486;9.190;2023-04-24T14:25:41;24.00;63.60
21666;DHT22;10994;45.486;9.190;2023-04-24T14:28:07;24.20;68.60
21666;DHT22;10994;45.486;9.190;2023-04-24T14:30:33;24.40;64.70
21666;DHT22;10994;45.486;9.190;2023-04-24T14:33:03;24.70;67.20
21666;DHT22;10994;45.486;9.190;2023-04-24T14:35:29;24.70;63.60
21666;DHT22;10994;45.486;9.190;2023-04-24T14:37:56;24.90;65.80
21666;DHT22;10994;45.486;9.190;2023-04-24T14:40:22;25.00;62.60
21666;DHT22;10994;45.486;9.190;2023-04-24T14:42:48;25.20;71.20
21666;DHT22;10994;45.486;9.190;2023-04-24T14:45:13;25.30;66.80
21666;DHT22;10994;45.486;9.190;2023-04-24T14:47:41;25.20;61.10
21666;DHT22;10994;45.486;9.190;2023-04-24T14:50:07;25.20;62.30
21666;DHT22;10994;45.486;9.190;2023-04-24T14:52:33;24.90;58.60
21666;DHT22;10994;45.486;9.190;2023-04-24T14:54:59;24.90;64.30
21666;DHT22;10994;45.486;9.190;2023-04-24T14:57:25;24.80;59.00
21666;DHT22;10994;45.486;9.190;2023-04-24T14:59:51;24.90;66.10
21666;DHT22;10994;45.486;9.190;2023-04-24T15:02:17;25.10;62.70
21666;DHT22;10994;45.486;9.190;2023-04-24T15:04:42;25.20;68.70
21666;DHT22;10994;45.486;9.190;2023-04-24T15:07:08;25.30;65.00
21666;DHT22;10994;45.486;9.190;2023-04-24T15:09:34;25.20;65.80
21666;DHT22;10994;45.486;9.190;2023-04-24T15:11:59;25.00;61.00
21666;DHT22;10994;45.486;9.190;2023-04-24T15:14:27;24.70;58.80
21666;DHT22;10994;45.486;9.190;2023-04-24T15:16:52;24.50;59.10
21666;DHT22;10994;45.486;9.190;2023-04-24T15:19:18;24.60;59.00
21666;DHT22;10994;45.486;9.190;2023-04-24T15:21:44;24.80;60.90
21666;DHT22;10994;45.486;9.190;2023-04-24T15:24:10;24.70;58.40
21666;DHT22;10994;45.486;9.190;2023-04-24T15:26:36;24.70;60.00
21666;DHT22;10994;45.486;9.190;2023-04-24T15:29:05;24.60;61.50
21666;DHT22;10994;45.486;9.190;2023-04-24T15:31:32;24.80;63.60
21666;DHT22;10994;45.486;9.190;2023-04-24T15:33:58;24.70;60.80
21666;DHT22;10994;45.486;9.190;2023-04-24T15:36:23;24.80;62.90
21666;DHT22;10994;45.486;9.190;2023-04-24T15:38:49;24.70;66.70
21666;DHT22;10994;45.486;9.190;2023-04-24T15:41:15;24.70;60.10
21666;DHT22;10994;45.486;9.190;2023-04-24T15:43:41;24.70;61.80
21666;DHT22;10994;45.486;9.190;2023-04-24T15:46:07;24.80;66.70
21666;DHT22;10994;45.486;9.190;2023-04-24T15:48:33;24.80;70.60
21666;DHT22;10994;45.486;9.190;2023-04-24T15:50:58;24.80;64.20
21666;DHT22;10994;45.486;9.190;2023-04-24T15:53:26;24.70;64.80
21666;DHT22;10994;45.486;9.190;2023-04-24T15:55:54;24.20;61.20
21666;DHT22;10994;45.486;9.190;2023-04-24T15:58:21;24.30;64.50
21666;DHT22;10994;45.486;9.190;2023-04-24T16:00:48;24.30;61.80
21666;DHT22;10994;45.486;9.190;2023-04-24T16:03:14;24.30;60.60
21666;DHT22;10994;45.486;9.190;2023-04-24T16:05:39;24.30;64.20
21666;DHT22;10994;45.486;9.190;2023-04-24T16:08:05;24.20;59.80
21666;DHT22;10994;45.486;9.190;2023-04-24T16:10:31;24.10;59.20
21666;DHT22;10994;45.486;9.190;2023-04-24T16:12:57;24.10;61.50
21666;DHT22;10994;45.486;9.190;2023-04-24T16:15:25;24.10;63.10
21666;DHT22;10994;45.486;9.190;2023-04-24T16:17:51;23.80;59.70
21666;DHT22;10994;45.486;9.190;2023-04-24T16:20:16;23.90;62.80
21666;DHT22;10994;45.486;9.190;2023-04-24T16:22:42;23.90;64.10
21666;DHT22;10994;45.486;9.190;2023-04-24T16:25:08;24.10;63.40
21666;DHT22;10994;45.486;9.190;2023-04-24T16:27:35;24.00;59.70
21666;DHT22;10994;45.486;9.190;2023-04-24T16:30:02;24.00;62.10
21666;DHT22;10994;45.486;9.190;2023-04-24T16:32:27;24.20;62.00
21666;DHT22;10994;45.486;9.190;2023-04-24T16:34:53;24.20;64.30
21666;DHT22;10994;45.486;9.190;2023-04-24T16:37:19;24.20;66.10
21666;DHT22;10994;45.486;9.190;2023-04-24T16:39:45;24.00;66.70
21666;DHT22;10994;45.486;9.190;2023-04-24T16:42:14;24.00;65.70
21666;DHT22;10994;45.486;9.190;2023-04-24T16:44:41;24.40;62.40